createdAt,value
2023-04-08T00:00:38.958Z,6.78
2023-04-08T00:03:05.592Z,6.82
2023-04-08T00:05:33.906Z,6.97
2023-04-08T00:08:01.706Z,6.22
2023-04-08T00:10:30.343Z,6.13
2023-04-08T00:12:56.788Z,6.22
2023-04-08T00:15:23.308Z,6.05
2023-04-08T00:17:49.840Z,5.80
2023-04-08T00:20:16.284Z,6.60
2023-04-08T00:22:42.716Z,6.32
2023-04-08T00:25:10.610Z,6.10
2023-04-08T00:27:37.027Z,4.90
2023-04-08T00:30:04.177Z,6.10
2023-04-08T00:32:30.631Z,5.53
2023-04-08T00:34:57.318Z,5.53
2023-04-08T00:37:23.748Z,5.45
2023-04-08T00:39:50.495Z,6.13
2023-04-08T00:42:18.399Z,6.05
2023-04-08T00:44:44.792Z,6.90
2023-04-08T00:47:12.591Z,5.53
2023-04-08T00:49:40.365Z,5.43
2023-04-08T00:52:06.822Z,6.68
2023-04-08T00:54:33.488Z,6.05
2023-04-08T00:56:59.929Z,5.03
2023-04-08T00:59:29.616Z,7.28
2023-04-08T01:02:03.566Z,6.68
2023-04-08T01:04:38.423Z,6.50
2023-04-08T01:07:12.524Z,6.60
2023-04-08T01:09:43.977Z,6.93
2023-04-08T01:12:17.478Z,6.97
2023-04-08T01:14:47.491Z,7.28
2023-04-08T01:17:18.338Z,7.07
2023-04-08T01:19:45.995Z,6.00
2023-04-08T01:22:31.038Z,7.22
2023-04-08T01:25:02.618Z,6.70
2023-04-08T01:27:32.046Z,7.55
2023-04-08T01:30:00.876Z,7.57
2023-04-08T01:32:28.607Z,6.43
2023-04-08T01:34:56.718Z,6.68
2023-04-08T01:37:25.031Z,6.57
2023-04-08T01:42:23.861Z,6.30
2023-04-08T01:44:55.015Z,5.90
2023-04-08T01:47:22.565Z,5.93
2023-04-08T01:49:50.413Z,6.10
2023-04-08T01:52:19.781Z,6.97
2023-04-08T01:54:46.544Z,6.50
2023-04-08T01:57:19.324Z,6.47
2023-04-08T01:59:50.366Z,5.95
2023-04-08T02:02:20.566Z,6.85
2023-04-08T02:04:47.316Z,6.32
2023-04-08T02:07:14.518Z,4.60
2023-04-08T02:09:40.996Z,5.75
2023-04-08T02:12:07.514Z,6.97
2023-04-08T02:14:34.139Z,6.72
2023-04-08T02:17:08.649Z,7.53
2023-04-08T02:19:43.491Z,6.50
2023-04-08T02:22:17.043Z,6.50
2023-04-08T02:24:44.074Z,8.75
2023-04-08T02:27:11.144Z,7.45
2023-04-08T02:29:41.695Z,6.65
2023-04-08T02:32:10.802Z,7.30
2023-04-08T02:34:39.883Z,8.10
2023-04-08T02:37:07.468Z,5.90
2023-04-08T02:39:34.268Z,7.85
2023-04-08T02:42:00.862Z,7.40
2023-04-08T02:44:27.328Z,7.10
2023-04-08T02:46:54.125Z,6.93
2023-04-08T02:49:20.514Z,8.23
2023-04-08T02:51:48.235Z,6.25
2023-04-08T02:54:14.684Z,7.55
2023-04-08T02:56:41.187Z,7.70
2023-04-08T02:59:07.634Z,8.43
2023-04-08T03:01:34.173Z,7.50
2023-04-08T03:04:00.625Z,7.80
2023-04-08T03:06:27.138Z,8.00
2023-04-08T03:08:54.881Z,7.85
2023-04-08T03:11:21.286Z,6.55
2023-04-08T03:13:47.687Z,7.72
2023-04-08T03:16:14.141Z,6.97
2023-04-08T03:18:40.592Z,6.53
2023-04-08T03:21:07.011Z,7.32
2023-04-08T03:23:33.520Z,6.97
2023-04-08T03:26:01.281Z,8.40
2023-04-08T03:28:27.689Z,6.82
2023-04-08T03:30:54.223Z,6.90
2023-04-08T03:33:20.631Z,9.00
2023-04-08T03:35:47.114Z,6.90
2023-04-08T03:38:13.623Z,7.97
2023-04-08T03:40:40.184Z,8.65
2023-04-08T03:43:08.032Z,9.23
2023-04-08T03:45:34.573Z,6.60
2023-04-08T03:48:01.005Z,9.82
2023-04-08T03:50:27.646Z,8.85
2023-04-08T03:52:54.046Z,9.07
2023-04-08T03:55:20.433Z,9.40
2023-04-08T03:57:46.885Z,7.07
2023-04-08T04:00:15.330Z,8.93
2023-04-08T04:02:44.834Z,8.77
2023-04-08T04:05:11.333Z,8.50
2023-04-08T04:07:37.736Z,8.93
2023-04-08T04:10:05.016Z,6.35
2023-04-08T04:12:31.414Z,7.30
2023-04-08T04:14:57.821Z,8.27
2023-04-08T04:17:25.599Z,8.23
2023-04-08T04:19:52.021Z,6.00
2023-04-08T04:22:18.445Z,7.00
2023-04-08T04:24:47.243Z,7.88
2023-04-08T04:27:13.726Z,6.93
2023-04-08T04:29:40.546Z,6.80
2023-04-08T04:32:06.971Z,6.22
2023-04-08T04:34:34.843Z,5.70
2023-04-08T04:37:01.272Z,6.60
2023-04-08T04:39:27.646Z,5.95
2023-04-08T04:41:54.084Z,6.50
2023-04-08T04:44:20.516Z,6.10
2023-04-08T04:46:46.937Z,6.25
2023-04-08T04:49:13.363Z,6.32
2023-04-08T04:51:42.990Z,7.60
2023-04-08T04:54:09.411Z,8.30
2023-04-08T04:56:35.957Z,7.68
2023-04-08T04:59:02.406Z,7.72
2023-04-08T05:01:28.955Z,5.97
2023-04-08T05:03:55.500Z,7.13
2023-04-08T05:06:23.223Z,6.85
2023-04-08T05:08:51.194Z,6.00
2023-04-08T05:11:17.760Z,7.10
2023-04-08T05:13:44.308Z,4.65
2023-04-08T05:16:10.964Z,6.57
2023-04-08T05:18:37.426Z,4.60
2023-04-08T05:21:04.125Z,6.53
2023-04-08T05:23:30.563Z,6.28
2023-04-08T05:25:58.360Z,4.45
2023-04-08T05:28:24.932Z,6.47
2023-04-08T05:30:52.284Z,6.65
2023-04-08T05:33:19.250Z,6.10
2023-04-08T05:35:46.162Z,5.90
2023-04-08T05:38:12.618Z,7.43
2023-04-08T05:40:39.001Z,6.53
2023-04-08T05:43:06.741Z,5.88
2023-04-08T05:45:33.173Z,5.22
2023-04-08T05:47:59.680Z,6.72
2023-04-08T05:50:26.233Z,5.57
2023-04-08T05:52:52.942Z,6.70
2023-04-08T05:55:19.528Z,6.00
2023-04-08T05:57:45.986Z,7.25
2023-04-08T06:00:14.188Z,6.68
2023-04-08T06:02:42.804Z,7.85
2023-04-08T06:05:09.737Z,5.10
2023-04-08T06:07:36.130Z,6.40
2023-04-08T06:10:02.885Z,6.72
2023-04-08T06:12:29.323Z,7.13
2023-04-08T06:14:56.276Z,6.78
2023-04-08T06:17:24.054Z,6.32
2023-04-08T06:19:50.517Z,5.68
2023-04-08T06:22:17.008Z,6.05
2023-04-08T06:24:43.447Z,4.30
2023-04-08T06:27:09.957Z,6.53
2023-04-08T06:29:36.365Z,6.50
2023-04-08T06:32:02.956Z,5.63
2023-04-08T06:34:30.784Z,5.82
2023-04-08T06:36:57.447Z,5.70
2023-04-08T06:39:24.160Z,7.05
2023-04-08T06:41:50.781Z,6.25
2023-04-08T06:44:28.360Z,7.40
2023-04-08T06:46:54.836Z,7.38
2023-04-08T06:49:21.400Z,8.30
2023-04-08T06:51:49.691Z,6.50
2023-04-08T06:54:16.146Z,8.65
2023-04-08T06:56:44.176Z,8.85
2023-04-08T06:59:10.793Z,9.35
2023-04-08T07:01:37.529Z,8.50
2023-04-08T07:04:07.353Z,8.02
2023-04-08T07:06:33.897Z,9.40
2023-04-08T07:09:11.747Z,8.25
2023-04-08T07:11:38.234Z,11.05
2023-04-08T07:14:05.059Z,10.00
2023-04-08T07:16:31.644Z,9.32
2023-04-08T07:18:58.135Z,9.73
2023-04-08T07:21:24.661Z,11.65
2023-04-08T07:23:51.156Z,7.88
2023-04-08T07:26:19.244Z,9.00
2023-04-08T07:28:45.830Z,8.65
2023-04-08T07:31:17.184Z,8.40
2023-04-08T07:33:45.325Z,11.68
2023-04-08T07:36:12.980Z,11.10
2023-04-08T07:38:40.181Z,11.68
2023-04-08T07:41:09.168Z,9.23
2023-04-08T07:43:37.133Z,12.60
2023-04-08T07:46:04.361Z,10.63
2023-04-08T07:48:31.088Z,13.85
2023-04-08T07:51:09.400Z,10.60
2023-04-08T07:53:37.726Z,11.85
2023-04-08T07:56:13.804Z,13.73
2023-04-08T07:58:43.837Z,11.38
2023-04-08T08:01:21.886Z,12.32
2023-04-08T08:03:49.184Z,14.75
2023-04-08T08:06:16.021Z,13.52
2023-04-08T08:08:42.696Z,15.38
2023-04-08T08:11:09.445Z,12.80
2023-04-08T08:13:35.866Z,14.23
2023-04-08T08:16:03.724Z,13.98
2023-04-08T08:18:30.229Z,12.73
2023-04-08T08:20:59.270Z,12.40
2023-04-08T08:23:26.575Z,12.50
2023-04-08T08:26:02.321Z,13.63
2023-04-08T08:28:28.945Z,15.00
2023-04-08T08:30:58.525Z,12.02
2023-04-08T08:33:26.851Z,14.77
2023-04-08T08:35:53.504Z,15.15
2023-04-08T08:38:19.974Z,12.38
2023-04-08T08:40:46.616Z,14.90
2023-04-08T08:43:14.440Z,13.13
2023-04-08T08:45:42.955Z,14.80
2023-04-08T08:48:15.789Z,15.05
2023-04-08T08:50:49.626Z,14.98
2023-04-08T08:53:16.414Z,15.20
2023-04-08T08:56:05.602Z,15.55
2023-04-08T08:58:35.469Z,15.90
2023-04-08T09:01:02.239Z,16.00
2023-04-08T09:03:35.169Z,15.32
2023-04-08T09:06:03.385Z,16.17
2023-04-08T09:08:32.215Z,15.85
2023-04-08T09:11:17.473Z,13.52
2023-04-08T09:13:46.949Z,13.60
2023-04-08T09:16:17.913Z,13.95
2023-04-08T09:18:46.122Z,15.63
2023-04-08T09:21:15.505Z,15.13
2023-04-08T09:23:45.533Z,15.70
2023-04-08T09:26:15.752Z,16.48
2023-04-08T09:28:43.924Z,14.85
2023-04-08T09:31:23.970Z,16.10
2023-04-08T09:33:51.496Z,16.60
2023-04-08T09:36:19.576Z,16.27
2023-04-08T09:38:46.669Z,16.75
2023-04-08T09:41:17.157Z,14.05
2023-04-08T09:43:47.269Z,16.20
2023-04-08T09:46:14.144Z,15.85
2023-04-08T09:48:48.736Z,15.85
2023-04-08T09:51:16.775Z,15.82
2023-04-08T09:53:55.790Z,14.68
2023-04-08T09:56:22.700Z,14.77
2023-04-08T09:58:54.506Z,16.73
2023-04-08T10:01:26.903Z,15.25
2023-04-08T10:03:55.640Z,18.77
2023-04-08T10:06:27.125Z,15.32
2023-04-08T10:09:01.927Z,17.67
2023-04-08T10:11:33.065Z,17.40
2023-04-08T10:13:59.814Z,16.58
2023-04-08T10:16:26.824Z,16.05
2023-04-08T10:18:56.038Z,17.88
2023-04-08T10:21:35.576Z,17.08
2023-04-08T10:24:06.815Z,17.38
2023-04-08T10:26:34.968Z,15.70
2023-04-08T10:29:41.581Z,17.50
2023-04-08T10:32:28.224Z,17.60
2023-04-08T10:34:55.063Z,17.15
2023-04-08T10:37:21.699Z,18.48
2023-04-08T10:39:56.428Z,18.13
2023-04-08T10:42:29.133Z,16.77
2023-04-08T10:45:00.228Z,20.45
2023-04-08T10:47:26.857Z,17.92
2023-04-08T10:49:53.432Z,18.00
2023-04-08T10:52:20.063Z,20.38
2023-04-08T10:54:47.315Z,18.75
2023-04-08T10:57:23.616Z,17.55
2023-04-08T10:59:50.129Z,18.83
2023-04-08T11:02:16.974Z,19.23
2023-04-08T11:04:49.920Z,19.77
2023-04-08T11:07:16.559Z,19.48
2023-04-08T11:09:45.062Z,17.30
2023-04-08T11:12:18.974Z,18.70
2023-04-08T11:14:46.465Z,19.40
2023-04-08T11:17:15.180Z,17.45
2023-04-08T11:19:48.267Z,19.27
2023-04-08T11:22:15.997Z,18.05
2023-04-08T11:24:46.835Z,17.05
2023-04-08T11:27:21.628Z,17.88
2023-04-08T11:29:58.560Z,16.00
2023-04-08T11:32:33.859Z,17.50
2023-04-08T11:35:00.661Z,18.02
2023-04-08T11:37:36.685Z,16.42
2023-04-08T11:40:17.674Z,17.55
2023-04-08T11:42:48.229Z,15.43
2023-04-08T11:45:17.424Z,16.52
2023-04-08T11:47:49.191Z,17.15
2023-04-08T11:50:32.201Z,15.88
2023-04-08T11:53:01.979Z,12.63
2023-04-08T11:55:32.000Z,15.32
2023-04-08T11:58:07.026Z,15.30
2023-04-08T12:00:36.258Z,14.13
2023-04-08T12:03:06.236Z,15.55
2023-04-08T12:05:45.916Z,14.32
2023-04-08T12:08:15.637Z,14.80
2023-04-08T12:10:45.601Z,16.30
2023-04-08T12:13:16.641Z,15.10
2023-04-08T12:15:49.285Z,15.27
2023-04-08T12:18:22.755Z,15.57
2023-04-08T12:20:49.383Z,14.55
2023-04-08T12:23:16.011Z,15.50
2023-04-08T12:25:42.785Z,14.52
2023-04-08T12:28:12.367Z,14.18
2023-04-08T12:30:44.339Z,14.10
2023-04-08T12:33:12.224Z,13.30
2023-04-08T12:35:43.358Z,13.57
2023-04-08T12:38:10.223Z,14.50
2023-04-08T12:40:36.996Z,13.68
2023-04-08T12:43:03.936Z,14.93
2023-04-08T12:45:30.949Z,13.70
2023-04-08T12:48:01.740Z,13.48
2023-04-08T12:50:28.665Z,14.68
2023-04-08T12:52:56.330Z,13.38
2023-04-08T12:55:23.739Z,13.68
2023-04-08T12:57:53.330Z,11.25
2023-04-08T13:00:22.794Z,12.38
2023-04-08T13:02:49.478Z,13.35
2023-04-08T13:05:19.728Z,13.50
2023-04-08T13:07:48.925Z,13.93
2023-04-08T13:10:16.282Z,13.73
2023-04-08T13:12:42.652Z,13.15
2023-04-08T13:15:11.274Z,14.00
2023-04-08T13:17:37.740Z,14.38
2023-04-08T13:20:05.859Z,13.15
2023-04-08T13:22:33.610Z,14.90
2023-04-08T13:25:00.046Z,14.25
2023-04-08T13:27:26.947Z,15.55
2023-04-08T13:29:54.135Z,14.05
2023-04-08T13:32:20.610Z,15.05
2023-04-08T13:34:47.448Z,14.20
2023-04-08T13:37:16.113Z,13.25
2023-04-08T13:39:47.110Z,15.15
2023-04-08T13:42:16.770Z,14.85
2023-04-08T13:44:45.778Z,14.55
2023-04-08T13:47:16.138Z,14.75
2023-04-08T13:49:45.817Z,14.45
2023-04-08T13:52:16.404Z,13.93
2023-04-08T13:54:45.794Z,13.80
2023-04-08T13:57:17.676Z,14.10
2023-04-08T13:59:46.639Z,13.63
2023-04-08T14:02:15.070Z,13.45
2023-04-08T14:04:46.210Z,12.43
2023-04-08T14:07:15.592Z,12.50
2023-04-08T14:09:46.410Z,12.52
2023-04-08T14:12:15.157Z,13.20
2023-04-08T14:14:48.436Z,12.27
2023-04-08T14:17:15.270Z,12.95
2023-04-08T14:19:46.840Z,12.77
2023-04-08T14:22:15.459Z,13.65
2023-04-08T14:24:47.674Z,14.32
2023-04-08T14:27:15.237Z,13.30
2023-04-08T14:29:42.261Z,13.65
2023-04-08T14:32:13.776Z,13.30
2023-04-08T14:34:47.633Z,11.65
2023-04-08T14:37:16.088Z,11.35
2023-04-08T14:39:45.197Z,12.20
2023-04-08T14:42:15.964Z,11.52
2023-04-08T14:44:49.112Z,11.88
2023-04-08T14:47:18.381Z,11.68
2023-04-08T14:49:45.390Z,10.30
2023-04-08T14:52:18.830Z,10.95
2023-04-08T14:54:46.425Z,11.10
2023-04-08T14:57:17.066Z,14.05
2023-04-08T14:59:44.108Z,12.38
2023-04-08T15:02:24.702Z,9.43
2023-04-08T15:04:51.759Z,12.57
2023-04-08T15:07:19.025Z,11.77
2023-04-08T15:09:46.473Z,13.55
2023-04-08T15:12:15.091Z,10.57
2023-04-08T15:14:48.178Z,12.05
2023-04-08T15:17:15.249Z,11.48
2023-04-08T15:19:41.673Z,12.15
2023-04-08T15:22:08.145Z,11.60
2023-04-08T15:24:34.605Z,10.90
2023-04-08T15:27:01.568Z,10.75
2023-04-08T15:29:30.661Z,11.43
2023-04-08T15:31:58.198Z,11.95
2023-04-08T15:34:25.412Z,12.20
2023-04-08T15:36:52.690Z,12.07
2023-04-08T15:39:44.104Z,11.45
2023-04-08T15:42:13.535Z,12.07
2023-04-08T15:44:46.487Z,11.90
2023-04-08T15:47:16.612Z,11.63
2023-04-08T15:49:46.285Z,12.13
2023-04-08T15:52:15.102Z,12.02
2023-04-08T15:54:44.746Z,10.65
2023-04-08T15:57:16.384Z,11.27
2023-04-08T15:59:47.267Z,12.23
2023-04-08T16:02:16.129Z,10.88
2023-04-08T16:04:44.934Z,12.68
2023-04-08T16:07:13.827Z,9.35
2023-04-08T16:09:46.548Z,11.18
2023-04-08T16:12:15.111Z,10.15
2023-04-08T16:14:51.505Z,10.93
2023-04-08T16:19:45.551Z,10.25
2023-04-08T16:22:14.587Z,10.85
2023-04-08T16:24:47.587Z,11.32
2023-04-08T16:27:17.319Z,11.00
2023-04-08T16:29:44.092Z,11.68
2023-04-08T16:32:13.511Z,10.05
2023-04-08T16:34:46.957Z,10.93
2023-04-08T16:37:17.892Z,12.27
2023-04-08T16:39:47.269Z,11.98
2023-04-08T16:42:17.060Z,10.55
2023-04-08T16:44:45.773Z,11.45
2023-04-08T16:47:17.473Z,11.38
2023-04-08T16:49:45.021Z,10.05
2023-04-08T16:52:15.857Z,10.38
2023-04-08T16:54:42.630Z,13.07
2023-04-08T16:57:16.643Z,10.38
2023-04-08T16:59:44.985Z,12.35
2023-04-08T17:02:17.981Z,12.10
2023-04-08T17:04:48.897Z,11.18
2023-04-08T17:07:16.233Z,12.57
2023-04-08T17:09:49.000Z,12.20
2023-04-08T17:12:16.330Z,12.02
2023-04-08T17:14:45.047Z,10.35
2023-04-08T17:17:11.575Z,12.48
2023-04-08T17:19:39.557Z,12.60
2023-04-08T17:22:06.069Z,11.82
2023-04-08T17:24:32.609Z,12.77
2023-04-08T17:26:59.057Z,12.15
2023-04-08T17:29:25.801Z,12.82
2023-04-08T17:31:52.532Z,12.93
2023-04-08T17:34:18.995Z,13.18
2023-04-08T17:36:46.702Z,11.73
2023-04-08T17:39:13.101Z,11.85
2023-04-08T17:41:41.300Z,13.02
2023-04-08T17:44:08.714Z,12.82
2023-04-08T17:46:35.116Z,13.27
2023-04-08T17:49:01.553Z,13.13
2023-04-08T17:51:28.378Z,13.27
2023-04-08T17:53:56.258Z,14.40
2023-04-08T17:56:22.749Z,13.75
2023-04-08T17:58:49.265Z,14.63
2023-04-08T18:01:15.750Z,12.35
2023-04-08T18:03:42.269Z,13.40
2023-04-08T18:06:08.827Z,13.85
2023-04-08T18:08:35.276Z,13.90
2023-04-08T18:11:05.389Z,19.02
2023-04-08T18:13:33.925Z,15.77
2023-04-08T18:16:01.625Z,12.73
2023-04-08T18:18:28.512Z,14.88
2023-04-08T18:20:55.526Z,14.23
2023-04-08T18:23:22.310Z,15.10
2023-04-08T18:25:50.339Z,13.73
2023-04-08T18:28:19.196Z,15.40
2023-04-08T18:30:50.974Z,14.77
2023-04-08T18:33:18.498Z,13.00
2023-04-08T18:35:45.843Z,14.57
2023-04-08T18:38:15.295Z,14.00
2023-04-08T18:40:44.549Z,14.63
2023-04-08T18:43:10.981Z,13.43
2023-04-08T18:45:38.823Z,13.85
2023-04-08T18:48:05.671Z,14.80
2023-04-08T18:50:32.256Z,13.93
2023-04-08T18:52:58.718Z,13.68
2023-04-08T18:55:25.215Z,14.15
2023-04-08T18:57:51.654Z,13.15
2023-04-08T19:00:18.079Z,13.15
2023-04-08T19:02:45.917Z,14.23
2023-04-08T19:05:12.442Z,13.80
2023-04-08T19:07:38.999Z,14.57
2023-04-08T19:10:06.767Z,14.63
2023-04-08T19:12:33.254Z,15.07
2023-04-08T19:14:59.751Z,14.65
2023-04-08T19:17:26.446Z,12.77
2023-04-08T19:19:54.324Z,14.45
2023-04-08T19:22:20.761Z,15.10
2023-04-08T19:24:47.198Z,14.43
2023-04-08T19:27:13.635Z,15.32
2023-04-08T19:29:40.075Z,14.60
2023-04-08T19:32:06.508Z,14.38
2023-04-08T19:34:36.925Z,14.93
2023-04-08T19:39:31.032Z,15.77
2023-04-08T19:41:57.512Z,13.68
2023-04-08T19:44:23.917Z,14.90
2023-04-08T19:46:50.444Z,15.63
2023-04-08T19:49:16.962Z,16.33
2023-04-08T19:51:43.386Z,15.48
2023-04-08T19:54:11.120Z,15.63
2023-04-08T19:56:37.599Z,16.50
2023-04-08T19:59:04.021Z,14.88
2023-04-08T20:01:30.547Z,14.82
2023-04-08T20:03:57.190Z,13.85
2023-04-08T20:06:23.641Z,16.15
2023-04-08T20:08:51.631Z,14.85
2023-04-08T20:11:19.661Z,14.77
2023-04-08T20:13:46.331Z,13.88
2023-04-08T20:16:12.851Z,15.52
2023-04-08T20:18:39.415Z,15.13
2023-04-08T20:21:05.847Z,14.52
2023-04-08T20:23:32.380Z,15.38
2023-04-08T20:25:58.796Z,14.73
2023-04-08T20:28:26.617Z,13.50
2023-04-08T20:30:52.964Z,14.35
2023-04-08T20:33:19.632Z,15.68
2023-04-08T20:35:46.087Z,13.57
2023-04-08T20:38:12.499Z,14.73
2023-04-08T20:40:41.787Z,13.98
2023-04-08T20:43:08.219Z,15.15
2023-04-08T20:45:36.496Z,14.40
2023-04-08T20:48:03.134Z,16.35
2023-04-08T20:50:29.613Z,15.75
2023-04-08T20:52:56.027Z,14.48
2023-04-08T20:55:22.478Z,15.90
2023-04-08T20:57:48.923Z,17.05
2023-04-08T21:00:15.396Z,17.60
2023-04-08T21:02:43.422Z,18.92
2023-04-08T21:05:09.940Z,16.38
2023-04-08T21:07:36.573Z,17.02
2023-04-08T21:10:03.086Z,17.50
2023-04-08T21:12:29.542Z,17.85
2023-04-08T21:14:56.030Z,19.52
2023-04-08T21:17:22.425Z,19.80
2023-04-08T21:19:50.186Z,18.67
2023-04-08T21:22:16.632Z,18.50
2023-04-08T21:24:43.038Z,18.38
2023-04-08T21:27:09.448Z,17.80
2023-04-08T21:29:35.903Z,20.45
2023-04-08T21:32:02.351Z,20.08
2023-04-08T21:34:28.759Z,19.75
2023-04-08T21:36:56.661Z,21.58
2023-04-08T21:39:23.080Z,19.30
2023-04-08T21:41:49.513Z,21.83
2023-04-08T21:44:16.048Z,21.92
2023-04-08T21:46:42.496Z,21.67
2023-04-08T21:49:08.920Z,22.27
2023-04-08T21:51:35.537Z,20.75
2023-04-08T21:54:03.393Z,21.88
2023-04-08T21:56:29.826Z,23.15
2023-04-08T21:58:56.317Z,22.83
2023-04-08T22:01:23.281Z,22.52
2023-04-08T22:03:50.021Z,18.75
2023-04-08T22:06:29.173Z,22.08
2023-04-08T22:08:57.881Z,21.70
2023-04-08T22:11:25.560Z,24.60
2023-04-08T22:13:51.977Z,23.85
2023-04-08T22:16:18.417Z,24.40
2023-04-08T22:18:44.860Z,22.50
2023-04-08T22:21:11.314Z,23.02
2023-04-08T22:23:37.759Z,24.92
2023-04-08T22:26:04.474Z,24.42
2023-04-08T22:28:32.219Z,24.95
2023-04-08T22:30:58.712Z,24.45
2023-04-08T22:33:25.140Z,23.75
2023-04-08T22:35:51.582Z,23.58
2023-04-08T22:38:17.981Z,24.00
2023-04-08T22:40:44.398Z,23.73
2023-04-08T22:43:10.839Z,22.15
2023-04-08T22:45:38.621Z,24.90
2023-04-08T22:48:05.667Z,24.55
2023-04-08T22:50:32.103Z,25.15
2023-04-08T22:52:58.538Z,23.27
2023-04-08T22:55:24.939Z,22.02
2023-04-08T22:57:51.389Z,23.92
2023-04-08T23:00:18.315Z,23.27
2023-04-08T23:02:46.195Z,22.80
2023-04-08T23:05:12.631Z,25.27
2023-04-08T23:07:39.066Z,25.05
2023-04-08T23:10:06.879Z,25.23
2023-04-08T23:12:33.348Z,24.58
2023-04-08T23:14:59.840Z,22.67
2023-04-08T23:17:26.410Z,22.95
2023-04-08T23:19:54.298Z,24.98
2023-04-08T23:22:20.688Z,22.52
2023-04-08T23:24:47.128Z,23.98
2023-04-08T23:27:13.548Z,23.70
2023-04-08T23:29:39.955Z,23.92
2023-04-08T23:32:06.524Z,24.98
2023-04-08T23:34:35.160Z,25.30
2023-04-08T23:37:02.975Z,26.42
2023-04-08T23:39:29.443Z,23.27
2023-04-08T23:41:55.874Z,26.55
2023-04-08T23:44:22.377Z,25.05
2023-04-08T23:46:48.862Z,24.85
2023-04-08T23:49:15.410Z,23.67
2023-04-08T23:51:41.954Z,21.80
2023-04-08T23:54:09.819Z,25.30
2023-04-08T23:56:36.246Z,24.85
2023-04-08T23:59:02.642Z,26.00
